sensor_id;sensor_type;location;lat;lon;timestamp;temperature;humidity
33988;DHT22;37428;53.580;-1.666;2023-07-13T00:01:17;14.40;83.50
33988;DHT22;37428;53.580;-1.666;2023-07-13T00:04:22;14.40;83.50
33988;DHT22;37428;53.580;-1.666;2023-07-13T00:07:27;14.30;83.60
33988;DHT22;37428;53.580;-1.666;2023-07-13T00:10:39;14.30;83.50
33988;DHT22;37428;53.580;-1.666;2023-07-13T00:13:42;14.20;83.40
33988;DHT22;37428;53.580;-1.666;2023-07-13T00:16:44;14.20;83.80
33988;DHT22;37428;53.580;-1.666;2023-07-13T00:19:46;14.20;84.10
33988;DHT22;37428;53.580;-1.666;2023-07-13T00:22:49;14.20;83.80
33988;DHT22;37428;53.580;-1.666;2023-07-13T00:25:53;14.20;83.90
33988;DHT22;37428;53.580;-1.666;2023-07-13T00:28:57;14.20;84.20
33988;DHT22;37428;53.580;-1.666;2023-07-13T00:32:00;14.20;84.20
33988;DHT22;37428;53.580;-1.666;2023-07-13T00:35:02;14.30;84.30
33988;DHT22;37428;53.580;-1.666;2023-07-13T00:38:05;14.30;84.10
33988;DHT22;37428;53.580;-1.666;2023-07-13T00:41:09;14.20;83.90
33988;DHT22;37428;53.580;-1.666;2023-07-13T00:44:14;14.20;83.90
33988;DHT22;37428;53.580;-1.666;2023-07-13T00:47:16;14.20;84.20
33988;DHT22;37428;53.580;-1.666;2023-07-13T00:50:19;14.20;84.00
33988;DHT22;37428;53.580;-1.666;2023-07-13T00:53:21;14.30;84.10
33988;DHT22;37428;53.580;-1.666;2023-07-13T00:56:28;14.30;84.50
33988;DHT22;37428;53.580;-1.666;2023-07-13T00:59:30;14.30;84.30
33988;DHT22;37428;53.580;-1.666;2023-07-13T01:02:33;14.30;84.20
33988;DHT22;37428;53.580;-1.666;2023-07-13T01:05:35;14.30;84.20
33988;DHT22;37428;53.580;-1.666;2023-07-13T01:08:38;14.30;84.40
33988;DHT22;37428;53.580;-1.666;2023-07-13T01:11:42;14.30;84.80
33988;DHT22;37428;53.580;-1.666;2023-07-13T01:14:45;14.30;84.80
33988;DHT22;37428;53.580;-1.666;2023-07-13T01:17:47;14.30;84.80
33988;DHT22;37428;53.580;-1.666;2023-07-13T01:20:55;14.30;85.10
33988;DHT22;37428;53.580;-1.666;2023-07-13T01:23:58;14.30;85.40
33988;DHT22;37428;53.580;-1.666;2023-07-13T01:27:00;14.20;85.40
33988;DHT22;37428;53.580;-1.666;2023-07-13T01:30:03;14.20;85.30
33988;DHT22;37428;53.580;-1.666;2023-07-13T01:33:05;14.20;85.90
33988;DHT22;37428;53.580;-1.666;2023-07-13T01:36:10;14.30;85.90
33988;DHT22;37428;53.580;-1.666;2023-07-13T01:39:14;14.20;85.90
33988;DHT22;37428;53.580;-1.666;2023-07-13T01:42:17;14.30;86.20
33988;DHT22;37428;53.580;-1.666;2023-07-13T01:45:21;14.30;86.00
33988;DHT22;37428;53.580;-1.666;2023-07-13T01:48:23;14.30;86.30
33988;DHT22;37428;53.580;-1.666;2023-07-13T01:51:27;14.30;86.60
33988;DHT22;37428;53.580;-1.666;2023-07-13T01:54:29;14.30;87.30
33988;DHT22;37428;53.580;-1.666;2023-07-13T01:57:31;14.20;88.00
33988;DHT22;37428;53.580;-1.666;2023-07-13T02:00:33;14.20;88.30
33988;DHT22;37428;53.580;-1.666;2023-07-13T02:03:36;14.20;89.00
33988;DHT22;37428;53.580;-1.666;2023-07-13T02:06:42;14.10;88.60
33988;DHT22;37428;53.580;-1.666;2023-07-13T02:09:44;14.10;89.10
33988;DHT22;37428;53.580;-1.666;2023-07-13T02:12:48;14.00;89.30
33988;DHT22;37428;53.580;-1.666;2023-07-13T02:15:51;14.00;89.30
33988;DHT22;37428;53.580;-1.666;2023-07-13T02:18:53;14.00;89.50
33988;DHT22;37428;53.580;-1.666;2023-07-13T02:21:57;13.90;89.50
33988;DHT22;37428;53.580;-1.666;2023-07-13T02:24:59;13.80;89.70
33988;DHT22;37428;53.580;-1.666;2023-07-13T02:28:02;13.80;89.80
33988;DHT22;37428;53.580;-1.666;2023-07-13T02:31:07;13.90;90.00
33988;DHT22;37428;53.580;-1.666;2023-07-13T02:34:11;13.80;89.90
33988;DHT22;37428;53.580;-1.666;2023-07-13T02:37:16;13.80;90.00
33988;DHT22;37428;53.580;-1.666;2023-07-13T02:40:18;13.70;90.00
33988;DHT22;37428;53.580;-1.666;2023-07-13T02:43:21;13.70;90.00
33988;DHT22;37428;53.580;-1.666;2023-07-13T02:46:23;13.70;89.50
33988;DHT22;37428;53.580;-1.666;2023-07-13T02:49:26;13.70;89.00
33988;DHT22;37428;53.580;-1.666;2023-07-13T02:52:31;13.70;88.90
33988;DHT22;37428;53.580;-1.666;2023-07-13T02:55:33;13.60;88.50
33988;DHT22;37428;53.580;-1.666;2023-07-13T02:58:35;13.60;88.40
33988;DHT22;37428;53.580;-1.666;2023-07-13T03:01:41;13.60;88.80
33988;DHT22;37428;53.580;-1.666;2023-07-13T03:04:43;13.60;88.90
33988;DHT22;37428;53.580;-1.666;2023-07-13T03:07:47;13.50;88.60
33988;DHT22;37428;53.580;-1.666;2023-07-13T03:10:49;13.50;88.70
33988;DHT22;37428;53.580;-1.666;2023-07-13T03:14:00;13.50;88.80
33988;DHT22;37428;53.580;-1.666;2023-07-13T03:17:02;13.50;89.10
33988;DHT22;37428;53.580;-1.666;2023-07-13T03:20:06;13.50;88.90
33988;DHT22;37428;53.580;-1.666;2023-07-13T03:23:09;13.50;88.40
33988;DHT22;37428;53.580;-1.666;2023-07-13T03:26:14;13.50;88.30
33988;DHT22;37428;53.580;-1.666;2023-07-13T03:29:16;13.50;88.10
33988;DHT22;37428;53.580;-1.666;2023-07-13T03:32:20;13.40;88.30
33988;DHT22;37428;53.580;-1.666;2023-07-13T03:35:22;13.40;88.30
33988;DHT22;37428;53.580;-1.666;2023-07-13T03:38:26;13.40;88.00
33988;DHT22;37428;53.580;-1.666;2023-07-13T03:41:28;13.30;87.90
33988;DHT22;37428;53.580;-1.666;2023-07-13T03:44:31;13.30;87.90
33988;DHT22;37428;53.580;-1.666;2023-07-13T03:47:33;13.20;87.50
33988;DHT22;37428;53.580;-1.666;2023-07-13T03:50:35;13.20;87.90
33988;DHT22;37428;53.580;-1.666;2023-07-13T03:53:42;13.20;88.00
33988;DHT22;37428;53.580;-1.666;2023-07-13T03:56:45;13.10;88.30
33988;DHT22;37428;53.580;-1.666;2023-07-13T03:59:47;13.00;88.50
33988;DHT22;37428;53.580;-1.666;2023-07-13T04:02:51;13.00;88.90
33988;DHT22;37428;53.580;-1.666;2023-07-13T04:05:54;13.00;89.20
33988;DHT22;37428;53.580;-1.666;2023-07-13T04:09:03;12.90;89.40
33988;DHT22;37428;53.580;-1.666;2023-07-13T04:12:07;12.90;89.80
33988;DHT22;37428;53.580;-1.666;2023-07-13T04:15:09;12.90;90.30
33988;DHT22;37428;53.580;-1.666;2023-07-13T04:18:13;12.90;90.60
33988;DHT22;37428;53.580;-1.666;2023-07-13T04:21:17;12.90;90.90
33988;DHT22;37428;53.580;-1.666;2023-07-13T04:24:20;12.90;90.80
33988;DHT22;37428;53.580;-1.666;2023-07-13T04:27:22;12.90;91.00
33988;DHT22;37428;53.580;-1.666;2023-07-13T04:30:25;12.90;90.80
33988;DHT22;37428;53.580;-1.666;2023-07-13T04:33:27;12.90;91.20
33988;DHT22;37428;53.580;-1.666;2023-07-13T04:36:29;12.90;91.20
33988;DHT22;37428;53.580;-1.666;2023-07-13T04:39:33;13.00;91.40
33988;DHT22;37428;53.580;-1.666;2023-07-13T04:42:37;13.10;91.50
33988;DHT22;37428;53.580;-1.666;2023-07-13T04:45:41;13.10;91.10
33988;DHT22;37428;53.580;-1.666;2023-07-13T04:48:45;13.10;90.90
33988;DHT22;37428;53.580;-1.666;2023-07-13T04:51:48;13.10;91.10
33988;DHT22;37428;53.580;-1.666;2023-07-13T04:54:52;13.10;90.90
33988;DHT22;37428;53.580;-1.666;2023-07-13T04:57:55;13.10;91.00
33988;DHT22;37428;53.580;-1.666;2023-07-13T05:01:00;13.10;91.10
33988;DHT22;37428;53.580;-1.666;2023-07-13T05:04:04;13.10;90.80
33988;DHT22;37428;53.580;-1.666;2023-07-13T05:07:06;13.20;90.80
33988;DHT22;37428;53.580;-1.666;2023-07-13T05:10:10;13.20;90.90
33988;DHT22;37428;53.580;-1.666;2023-07-13T05:13:12;13.20;90.80
33988;DHT22;37428;53.580;-1.666;2023-07-13T05:16:16;13.20;90.50
33988;DHT22;37428;53.580;-1.666;2023-07-13T05:19:18;13.30;90.40
33988;DHT22;37428;53.580;-1.666;2023-07-13T05:22:22;13.30;89.60
33988;DHT22;37428;53.580;-1.666;2023-07-13T05:25:25;13.40;89.70
33988;DHT22;37428;53.580;-1.666;2023-07-13T05:28:37;13.40;89.40
33988;DHT22;37428;53.580;-1.666;2023-07-13T05:31:41;13.40;88.90
33988;DHT22;37428;53.580;-1.666;2023-07-13T05:34:43;13.50;88.80
33988;DHT22;37428;53.580;-1.666;2023-07-13T05:37:45;13.50;88.70
33988;DHT22;37428;53.580;-1.666;2023-07-13T05:40:50;13.40;88.50
33988;DHT22;37428;53.580;-1.666;2023-07-13T05:43:52;13.50;88.60
33988;DHT22;37428;53.580;-1.666;2023-07-13T05:46:56;13.70;88.40
33988;DHT22;37428;53.580;-1.666;2023-07-13T05:49:58;13.80;87.80
33988;DHT22;37428;53.580;-1.666;2023-07-13T05:53:00;13.90;87.20
33988;DHT22;37428;53.580;-1.666;2023-07-13T05:56:05;14.00;86.70
33988;DHT22;37428;53.580;-1.666;2023-07-13T05:59:09;14.20;86.40
33988;DHT22;37428;53.580;-1.666;2023-07-13T06:02:11;14.40;86.50
33988;DHT22;37428;53.580;-1.666;2023-07-13T06:05:13;14.50;85.60
33988;DHT22;37428;53.580;-1.666;2023-07-13T06:08:16;14.70;85.10
33988;DHT22;37428;53.580;-1.666;2023-07-13T06:11:22;14.90;84.20
33988;DHT22;37428;53.580;-1.666;2023-07-13T06:14:24;14.80;83.50
33988;DHT22;37428;53.580;-1.666;2023-07-13T06:17:28;14.70;83.90
33988;DHT22;37428;53.580;-1.666;2023-07-13T06:20:33;14.60;83.40
33988;DHT22;37428;53.580;-1.666;2023-07-13T06:23:35;14.50;84.30
33988;DHT22;37428;53.580;-1.666;2023-07-13T06:26:38;14.40;84.50
33988;DHT22;37428;53.580;-1.666;2023-07-13T06:29:41;14.40;84.40
33988;DHT22;37428;53.580;-1.666;2023-07-13T06:32:45;14.30;83.80
33988;DHT22;37428;53.580;-1.666;2023-07-13T06:35:47;14.50;84.10
33988;DHT22;37428;53.580;-1.666;2023-07-13T06:38:51;14.60;83.50
33988;DHT22;37428;53.580;-1.666;2023-07-13T06:41:55;14.80;83.00
33988;DHT22;37428;53.580;-1.666;2023-07-13T06:44:57;15.20;83.10
33988;DHT22;37428;53.580;-1.666;2023-07-13T06:47:59;15.40;81.00
33988;DHT22;37428;53.580;-1.666;2023-07-13T06:51:02;15.60;80.00
33988;DHT22;37428;53.580;-1.666;2023-07-13T06:54:07;15.70;79.30
33988;DHT22;37428;53.580;-1.666;2023-07-13T06:57:10;15.90;79.10
33988;DHT22;37428;53.580;-1.666;2023-07-13T07:00:13;16.00;77.80
33988;DHT22;37428;53.580;-1.666;2023-07-13T07:03:15;16.20;78.30
33988;DHT22;37428;53.580;-1.666;2023-07-13T07:06:19;16.30;76.50
33988;DHT22;37428;53.580;-1.666;2023-07-13T07:09:24;16.30;75.20
33988;DHT22;37428;53.580;-1.666;2023-07-13T07:12:28;16.30;75.50
33988;DHT22;37428;53.580;-1.666;2023-07-13T07:15:30;16.30;74.40
33988;DHT22;37428;53.580;-1.666;2023-07-13T07:18:32;16.50;74.60
33988;DHT22;37428;53.580;-1.666;2023-07-13T07:21:34;16.60;74.60
33988;DHT22;37428;53.580;-1.666;2023-07-13T07:24:37;16.50;73.50
33988;DHT22;37428;53.580;-1.666;2023-07-13T07:27:40;16.40;74.00
33988;DHT22;37428;53.580;-1.666;2023-07-13T07:30:42;16.50;73.90
33988;DHT22;37428;53.580;-1.666;2023-07-13T07:33:45;16.60;74.20
33988;DHT22;37428;53.580;-1.666;2023-07-13T07:36:47;16.60;74.00
33988;DHT22;37428;53.580;-1.666;2023-07-13T07:39:49;16.80;74.60
33988;DHT22;37428;53.580;-1.666;2023-07-13T07:42:53;16.90;73.10
33988;DHT22;37428;53.580;-1.666;2023-07-13T07:45:55;16.90;72.30
33988;DHT22;37428;53.580;-1.666;2023-07-13T07:48:57;16.80;70.30
33988;DHT22;37428;53.580;-1.666;2023-07-13T07:51:59;16.60;70.60
33988;DHT22;37428;53.580;-1.666;2023-07-13T07:55:03;16.50;71.10
33988;DHT22;37428;53.580;-1.666;2023-07-13T07:58:07;16.30;71.60
33988;DHT22;37428;53.580;-1.666;2023-07-13T08:01:10;16.20;71.90
33988;DHT22;37428;53.580;-1.666;2023-07-13T08:04:12;16.10;71.10
33988;DHT22;37428;53.580;-1.666;2023-07-13T08:07:14;16.20;71.40
33988;DHT22;37428;53.580;-1.666;2023-07-13T08:10:16;16.20;71.60
33988;DHT22;37428;53.580;-1.666;2023-07-13T08:13:20;16.20;71.40
33988;DHT22;37428;53.580;-1.666;2023-07-13T08:16:24;16.20;70.40
33988;DHT22;37428;53.580;-1.666;2023-07-13T08:19:26;16.20;70.80
33988;DHT22;37428;53.580;-1.666;2023-07-13T08:22:28;16.20;70.50
33988;DHT22;37428;53.580;-1.666;2023-07-13T08:25:31;16.30;70.50
33988;DHT22;37428;53.580;-1.666;2023-07-13T08:28:34;16.20;70.40
33988;DHT22;37428;53.580;-1.666;2023-07-13T08:31:37;16.30;71.00
33988;DHT22;37428;53.580;-1.666;2023-07-13T08:34:39;16.30;71.70
33988;DHT22;37428;53.580;-1.666;2023-07-13T08:37:41;16.50;72.10
33988;DHT22;37428;53.580;-1.666;2023-07-13T08:40:44;16.90;70.70
33988;DHT22;37428;53.580;-1.666;2023-07-13T08:43:50;17.40;69.00
33988;DHT22;37428;53.580;-1.666;2023-07-13T08:46:54;17.90;64.10
33988;DHT22;37428;53.580;-1.666;2023-07-13T08:49:57;18.10;67.10
33988;DHT22;37428;53.580;-1.666;2023-07-13T08:53:03;18.60;66.00
33988;DHT22;37428;53.580;-1.666;2023-07-13T08:56:09;18.80;61.90
33988;DHT22;37428;53.580;-1.666;2023-07-13T08:59:16;18.70;61.50
33988;DHT22;37428;53.580;-1.666;2023-07-13T09:02:27;19.20;61.60
33988;DHT22;37428;53.580;-1.666;2023-07-13T09:05:34;19.40;58.90
33988;DHT22;37428;53.580;-1.666;2023-07-13T09:08:49;19.50;58.50
33988;DHT22;37428;53.580;-1.666;2023-07-13T09:12:02;19.70;57.80
33988;DHT22;37428;53.580;-1.666;2023-07-13T09:15:21;19.70;57.50
33988;DHT22;37428;53.580;-1.666;2023-07-13T09:18:28;19.80;57.40
33988;DHT22;37428;53.580;-1.666;2023-07-13T09:21:33;20.10;56.80
33988;DHT22;37428;53.580;-1.666;2023-07-13T09:24:38;20.30;56.70
33988;DHT22;37428;53.580;-1.666;2023-07-13T09:27:43;20.50;55.40
33988;DHT22;37428;53.580;-1.666;2023-07-13T09:30:52;20.60;55.90
33988;DHT22;37428;53.580;-1.666;2023-07-13T09:33:56;20.00;56.50
33988;DHT22;37428;53.580;-1.666;2023-07-13T09:36:58;19.70;58.00
33988;DHT22;37428;53.580;-1.666;2023-07-13T09:40:02;19.30;55.90
33988;DHT22;37428;53.580;-1.666;2023-07-13T09:43:10;19.60;58.10
33988;DHT22;37428;53.580;-1.666;2023-07-13T09:46:21;20.00;57.00
33988;DHT22;37428;53.580;-1.666;2023-07-13T09:49:24;20.40;53.80
33988;DHT22;37428;53.580;-1.666;2023-07-13T09:52:27;20.70;53.40
33988;DHT22;37428;53.580;-1.666;2023-07-13T09:55:42;21.00;52.40
33988;DHT22;37428;53.580;-1.666;2023-07-13T09:58:45;21.20;51.00
33988;DHT22;37428;53.580;-1.666;2023-07-13T10:01:48;21.40;50.80
33988;DHT22;37428;53.580;-1.666;2023-07-13T10:04:56;21.50;51.50
33988;DHT22;37428;53.580;-1.666;2023-07-13T10:07:58;21.60;49.60
33988;DHT22;37428;53.580;-1.666;2023-07-13T10:11:08;21.90;48.60
33988;DHT22;37428;53.580;-1.666;2023-07-13T10:14:14;22.10;48.80
33988;DHT22;37428;53.580;-1.666;2023-07-13T10:17:21;22.20;50.10
33988;DHT22;37428;53.580;-1.666;2023-07-13T10:20:27;21.90;47.90
33988;DHT22;37428;53.580;-1.666;2023-07-13T10:23:30;22.00;50.10
33988;DHT22;37428;53.580;-1.666;2023-07-13T10:26:34;21.90;50.10
33988;DHT22;37428;53.580;-1.666;2023-07-13T10:29:39;22.10;48.00
33988;DHT22;37428;53.580;-1.666;2023-07-13T10:32:46;22.00;49.70
33988;DHT22;37428;53.580;-1.666;2023-07-13T10:35:51;21.90;50.60
33988;DHT22;37428;53.580;-1.666;2023-07-13T10:38:59;21.90;50.30
33988;DHT22;37428;53.580;-1.666;2023-07-13T10:42:05;22.00;47.50
33988;DHT22;37428;53.580;-1.666;2023-07-13T10:45:15;22.30;49.80
33988;DHT22;37428;53.580;-1.666;2023-07-13T10:48:21;22.60;50.60
33988;DHT22;37428;53.580;-1.666;2023-07-13T10:51:24;22.40;50.10
33988;DHT22;37428;53.580;-1.666;2023-07-13T10:54:27;22.10;47.70
33988;DHT22;37428;53.580;-1.666;2023-07-13T10:57:29;22.20;49.90
33988;DHT22;37428;53.580;-1.666;2023-07-13T11:00:32;22.80;48.60
33988;DHT22;37428;53.580;-1.666;2023-07-13T11:03:38;22.80;48.30
33988;DHT22;37428;53.580;-1.666;2023-07-13T11:06:50;22.40;48.70
33988;DHT22;37428;53.580;-1.666;2023-07-13T11:09:55;22.00;50.10
33988;DHT22;37428;53.580;-1.666;2023-07-13T11:12:58;21.70;50.20
33988;DHT22;37428;53.580;-1.666;2023-07-13T11:16:02;21.60;49.70
33988;DHT22;37428;53.580;-1.666;2023-07-13T11:19:38;21.90;51.70
33988;DHT22;37428;53.580;-1.666;2023-07-13T11:22:43;22.10;51.30
33988;DHT22;37428;53.580;-1.666;2023-07-13T11:25:46;22.00;51.50
33988;DHT22;37428;53.580;-1.666;2023-07-13T11:28:49;21.70;52.80
33988;DHT22;37428;53.580;-1.666;2023-07-13T11:31:54;21.50;53.40
33988;DHT22;37428;53.580;-1.666;2023-07-13T11:34:58;21.40;53.00
33988;DHT22;37428;53.580;-1.666;2023-07-13T11:38:01;22.00;52.60
33988;DHT22;37428;53.580;-1.666;2023-07-13T11:41:06;22.70;52.30
33988;DHT22;37428;53.580;-1.666;2023-07-13T11:44:13;22.80;50.80
33988;DHT22;37428;53.580;-1.666;2023-07-13T11:47:18;22.80;49.70
33988;DHT22;37428;53.580;-1.666;2023-07-13T11:50:24;23.20;50.10
33988;DHT22;37428;53.580;-1.666;2023-07-13T11:53:37;23.50;49.40
33988;DHT22;37428;53.580;-1.666;2023-07-13T11:56:41;23.80;47.90
33988;DHT22;37428;53.580;-1.666;2023-07-13T11:59:43;24.00;47.00
33988;DHT22;37428;53.580;-1.666;2023-07-13T12:02:48;24.00;46.50
33988;DHT22;37428;53.580;-1.666;2023-07-13T12:06:01;23.80;46.10
33988;DHT22;37428;53.580;-1.666;2023-07-13T12:09:11;23.60;46.50
33988;DHT22;37428;53.580;-1.666;2023-07-13T12:12:17;23.60;47.30
33988;DHT22;37428;53.580;-1.666;2023-07-13T12:15:20;23.20;47.40
33988;DHT22;37428;53.580;-1.666;2023-07-13T12:18:28;23.40;49.10
33988;DHT22;37428;53.580;-1.666;2023-07-13T12:21:37;23.70;47.30
33988;DHT22;37428;53.580;-1.666;2023-07-13T12:24:41;23.80;45.70
33988;DHT22;37428;53.580;-1.666;2023-07-13T12:27:47;23.80;45.60
33988;DHT22;37428;53.580;-1.666;2023-07-13T12:30:50;23.80;43.80
33988;DHT22;37428;53.580;-1.666;2023-07-13T12:34:01;24.00;45.10
33988;DHT22;37428;53.580;-1.666;2023-07-13T12:37:12;24.30;42.90
33988;DHT22;37428;53.580;-1.666;2023-07-13T12:40:16;24.60;41.10
33988;DHT22;37428;53.580;-1.666;2023-07-13T12:43:20;24.90;42.30
33988;DHT22;37428;53.580;-1.666;2023-07-13T12:46:24;24.90;40.90
33988;DHT22;37428;53.580;-1.666;2023-07-13T12:49:31;24.90;41.80
33988;DHT22;37428;53.580;-1.666;2023-07-13T12:52:36;25.20;41.80
33988;DHT22;37428;53.580;-1.666;2023-07-13T12:55:44;25.20;42.80
33988;DHT22;37428;53.580;-1.666;2023-07-13T12:58:48;24.90;40.10
33988;DHT22;37428;53.580;-1.666;2023-07-13T13:01:55;24.60;42.00
33988;DHT22;37428;53.580;-1.666;2023-07-13T13:04:57;24.70;41.80
33988;DHT22;37428;53.580;-1.666;2023-07-13T13:08:02;24.60;43.60
33988;DHT22;37428;53.580;-1.666;2023-07-13T13:11:04;24.50;43.80
33988;DHT22;37428;53.580;-1.666;2023-07-13T13:14:06;24.70;43.50
33988;DHT22;37428;53.580;-1.666;2023-07-13T13:17:18;24.60;44.20
33988;DHT22;37428;53.580;-1.666;2023-07-13T13:20:21;24.30;44.10
33988;DHT22;37428;53.580;-1.666;2023-07-13T13:23:25;23.90;44.80
33988;DHT22;37428;53.580;-1.666;2023-07-13T13:26:27;23.60;45.50
33988;DHT22;37428;53.580;-1.666;2023-07-13T13:29:32;23.20;44.60
33988;DHT22;37428;53.580;-1.666;2023-07-13T13:32:34;23.10;46.10
33988;DHT22;37428;53.580;-1.666;2023-07-13T13:35:36;22.90;46.80
33988;DHT22;37428;53.580;-1.666;2023-07-13T13:38:40;22.80;47.70
33988;DHT22;37428;53.580;-1.666;2023-07-13T13:41:42;22.70;46.60
33988;DHT22;37428;53.580;-1.666;2023-07-13T13:44:44;22.60;48.40
33988;DHT22;37428;53.580;-1.666;2023-07-13T13:47:46;22.40;47.40
33988;DHT22;37428;53.580;-1.666;2023-07-13T13:50:49;22.40;48.80
33988;DHT22;37428;53.580;-1.666;2023-07-13T13:53:53;22.50;49.10
33988;DHT22;37428;53.580;-1.666;2023-07-13T13:56:55;22.50;48.20
33988;DHT22;37428;53.580;-1.666;2023-07-13T13:59:59;22.30;48.70
33988;DHT22;37428;53.580;-1.666;2023-07-13T14:03:02;22.20;49.20
33988;DHT22;37428;53.580;-1.666;2023-07-13T14:06:04;22.10;49.60
33988;DHT22;37428;53.580;-1.666;2023-07-13T14:09:11;22.20;50.60
33988;DHT22;37428;53.580;-1.666;2023-07-13T14:12:13;22.20;50.40
33988;DHT22;37428;53.580;-1.666;2023-07-13T14:15:22;22.10;50.00
33988;DHT22;37428;53.580;-1.666;2023-07-13T14:18:25;22.00;50.50
33988;DHT22;37428;53.580;-1.666;2023-07-13T14:21:28;22.50;49.80
33988;DHT22;37428;53.580;-1.666;2023-07-13T14:24:32;23.00;48.70
33988;DHT22;37428;53.580;-1.666;2023-07-13T14:27:34;23.30;47.70
33988;DHT22;37428;53.580;-1.666;2023-07-13T14:30:36;23.50;47.10
33988;DHT22;37428;53.580;-1.666;2023-07-13T14:33:38;23.70;48.20
33988;DHT22;37428;53.580;-1.666;2023-07-13T14:36:42;23.80;50.00
33988;DHT22;37428;53.580;-1.666;2023-07-13T14:39:48;23.80;49.50
33988;DHT22;37428;53.580;-1.666;2023-07-13T14:42:52;23.70;50.10
33988;DHT22;37428;53.580;-1.666;2023-07-13T14:45:54;23.70;49.00
33988;DHT22;37428;53.580;-1.666;2023-07-13T14:49:02;23.60;48.60
33988;DHT22;37428;53.580;-1.666;2023-07-13T14:52:12;23.40;48.00
33988;DHT22;37428;53.580;-1.666;2023-07-13T14:55:19;23.10;50.50
33988;DHT22;37428;53.580;-1.666;2023-07-13T14:58:23;22.90;50.70
33988;DHT22;37428;53.580;-1.666;2023-07-13T15:01:25;22.80;50.90
33988;DHT22;37428;53.580;-1.666;2023-07-13T15:04:29;23.00;51.50
33988;DHT22;37428;53.580;-1.666;2023-07-13T15:07:31;23.10;51.30
33988;DHT22;37428;53.580;-1.666;2023-07-13T15:10:35;23.20;49.30
33988;DHT22;37428;53.580;-1.666;2023-07-13T15:13:38;23.00;50.00
33988;DHT22;37428;53.580;-1.666;2023-07-13T15:16:41;22.80;50.90
33988;DHT22;37428;53.580;-1.666;2023-07-13T15:19:43;22.40;51.30
33988;DHT22;37428;53.580;-1.666;2023-07-13T15:22:46;22.00;52.60
33988;DHT22;37428;53.580;-1.666;2023-07-13T15:25:50;21.70;53.70
33988;DHT22;37428;53.580;-1.666;2023-07-13T15:28:52;21.40;55.30
33988;DHT22;37428;53.580;-1.666;2023-07-13T15:31:54;21.40;54.90
33988;DHT22;37428;53.580;-1.666;2023-07-13T15:34:57;21.30;55.40
33988;DHT22;37428;53.580;-1.666;2023-07-13T15:37:59;21.60;54.80
33988;DHT22;37428;53.580;-1.666;2023-07-13T15:41:12;21.90;54.10
33988;DHT22;37428;53.580;-1.666;2023-07-13T15:44:29;21.90;54.80
33988;DHT22;37428;53.580;-1.666;2023-07-13T15:47:31;21.90;53.10
33988;DHT22;37428;53.580;-1.666;2023-07-13T15:50:43;21.80;53.20
33988;DHT22;37428;53.580;-1.666;2023-07-13T15:53:46;21.60;55.10
33988;DHT22;37428;53.580;-1.666;2023-07-13T15:56:55;21.90;54.90
33988;DHT22;37428;53.580;-1.666;2023-07-13T15:59:57;22.30;53.60
33988;DHT22;37428;53.580;-1.666;2023-07-13T16:03:00;22.80;53.00
33988;DHT22;37428;53.580;-1.666;2023-07-13T16:06:02;23.10;51.50
33988;DHT22;37428;53.580;-1.666;2023-07-13T16:09:05;22.90;52.70
33988;DHT22;37428;53.580;-1.666;2023-07-13T16:12:12;22.70;51.90
33988;DHT22;37428;53.580;-1.666;2023-07-13T16:15:17;22.40;52.40
33988;DHT22;37428;53.580;-1.666;2023-07-13T16:18:19;22.40;52.30
33988;DHT22;37428;53.580;-1.666;2023-07-13T16:21:23;22.70;52.20
33988;DHT22;37428;53.580;-1.666;2023-07-13T16:24:26;22.70;51.80
33988;DHT22;37428;53.580;-1.666;2023-07-13T16:27:29;22.60;52.00
33988;DHT22;37428;53.580;-1.666;2023-07-13T16:30:34;22.40;51.90
33988;DHT22;37428;53.580;-1.666;2023-07-13T16:33:36;22.10;53.60
33988;DHT22;37428;53.580;-1.666;2023-07-13T16:36:38;22.30;53.20
33988;DHT22;37428;53.580;-1.666;2023-07-13T16:39:44;22.30;53.40
33988;DHT22;37428;53.580;-1.666;2023-07-13T16:42:49;22.10;52.50
33988;DHT22;37428;53.580;-1.666;2023-07-13T16:45:55;22.00;53.10
33988;DHT22;37428;53.580;-1.666;2023-07-13T16:49:00;21.80;53.20
33988;DHT22;37428;53.580;-1.666;2023-07-13T16:52:02;21.60;53.30
33988;DHT22;37428;53.580;-1.666;2023-07-13T16:55:08;21.50;53.50
33988;DHT22;37428;53.580;-1.666;2023-07-13T16:58:12;21.40;53.30
33988;DHT22;37428;53.580;-1.666;2023-07-13T17:01:14;21.30;53.50
33988;DHT22;37428;53.580;-1.666;2023-07-13T17:04:18;21.50;53.30
33988;DHT22;37428;53.580;-1.666;2023-07-13T17:07:23;21.70;53.20
33988;DHT22;37428;53.580;-1.666;2023-07-13T17:10:25;21.70;52.70
33988;DHT22;37428;53.580;-1.666;2023-07-13T17:13:29;21.50;52.50
33988;DHT22;37428;53.580;-1.666;2023-07-13T17:16:31;21.30;53.00
33988;DHT22;37428;53.580;-1.666;2023-07-13T17:19:33;21.20;53.60
33988;DHT22;37428;53.580;-1.666;2023-07-13T17:22:35;21.30;53.90
33988;DHT22;37428;53.580;-1.666;2023-07-13T17:25:37;21.40;54.30
33988;DHT22;37428;53.580;-1.666;2023-07-13T17:28:42;21.50;54.30
33988;DHT22;37428;53.580;-1.666;2023-07-13T17:31:45;21.50;53.20
33988;DHT22;37428;53.580;-1.666;2023-07-13T17:34:47;21.40;53.60
33988;DHT22;37428;53.580;-1.666;2023-07-13T17:37:51;21.20;55.00
33988;DHT22;37428;53.580;-1.666;2023-07-13T17:40:53;21.00;55.20
33988;DHT22;37428;53.580;-1.666;2023-07-13T17:43:56;20.80;56.10
33988;DHT22;37428;53.580;-1.666;2023-07-13T17:46:59;20.50;56.50
33988;DHT22;37428;53.580;-1.666;2023-07-13T17:50:11;20.40;57.70
33988;DHT22;37428;53.580;-1.666;2023-07-13T17:53:16;20.40;57.60
33988;DHT22;37428;53.580;-1.666;2023-07-13T17:56:18;20.20;57.60
33988;DHT22;37428;53.580;-1.666;2023-07-13T17:59:22;20.10;57.80
33988;DHT22;37428;53.580;-1.666;2023-07-13T18:02:24;20.10;57.40
33988;DHT22;37428;53.580;-1.666;2023-07-13T18:05:32;20.00;57.30
33988;DHT22;37428;53.580;-1.666;2023-07-13T18:08:36;19.90;57.90
33988;DHT22;37428;53.580;-1.666;2023-07-13T18:11:38;19.90;57.40
33988;DHT22;37428;53.580;-1.666;2023-07-13T18:14:42;19.80;58.20
33988;DHT22;37428;53.580;-1.666;2023-07-13T18:17:47;19.80;57.10
33988;DHT22;37428;53.580;-1.666;2023-07-13T18:20:51;19.60;57.60
33988;DHT22;37428;53.580;-1.666;2023-07-13T18:23:54;19.60;57.70
33988;DHT22;37428;53.580;-1.666;2023-07-13T18:26:56;19.60;57.70
33988;DHT22;37428;53.580;-1.666;2023-07-13T18:30:00;19.50;58.40
33988;DHT22;37428;53.580;-1.666;2023-07-13T18:33:02;19.50;57.80
33988;DHT22;37428;53.580;-1.666;2023-07-13T18:36:05;19.40;58.30
33988;DHT22;37428;53.580;-1.666;2023-07-13T18:39:10;19.30;58.40
33988;DHT22;37428;53.580;-1.666;2023-07-13T18:42:13;19.30;58.70
33988;DHT22;37428;53.580;-1.666;2023-07-13T18:45:17;19.20;57.90
33988;DHT22;37428;53.580;-1.666;2023-07-13T18:48:21;19.10;58.40
33988;DHT22;37428;53.580;-1.666;2023-07-13T18:51:24;19.10;58.90
33988;DHT22;37428;53.580;-1.666;2023-07-13T18:54:27;19.00;59.70
33988;DHT22;37428;53.580;-1.666;2023-07-13T18:57:29;19.00;60.10
33988;DHT22;37428;53.580;-1.666;2023-07-13T19:00:33;18.90;59.60
33988;DHT22;37428;53.580;-1.666;2023-07-13T19:03:35;18.80;59.60